createdAt,value
2019-02-21T00:00:48.172Z,78.98
2019-02-21T00:03:19.741Z,80.06
2019-02-21T00:05:51.191Z,79.89
2019-02-21T00:08:22.590Z,80.51
2019-02-21T00:10:53.866Z,80.06
2019-02-21T00:13:38.295Z,80.60
2019-02-21T00:16:09.652Z,80.87
2019-02-21T00:18:41.028Z,80.08
2019-02-21T00:21:12.604Z,79.89
2019-02-21T00:23:43.952Z,80.54
2019-02-21T00:26:15.205Z,80.79
2019-02-21T00:28:46.750Z,79.94
2019-02-21T00:31:18.218Z,79.61
2019-02-21T00:33:49.619Z,79.17
2019-02-21T00:36:21.968Z,79.06
2019-02-21T00:38:53.277Z,79.15
2019-02-21T00:41:24.617Z,79.82
2019-02-21T00:43:55.965Z,79.31
2019-02-21T00:46:27.425Z,78.61
2019-02-21T00:48:58.788Z,78.11
2019-02-21T00:51:30.096Z,78.59
2019-02-21T00:54:01.397Z,79.53
2019-02-21T00:56:32.913Z,79.70
2019-02-21T00:59:04.326Z,80.56
2019-02-21T01:01:35.777Z,81.32
2019-02-21T01:04:07.335Z,80.88
2019-02-21T01:06:38.762Z,82.52
2019-02-21T01:09:10.135Z,82.45
2019-02-21T01:11:41.611Z,83.31
2019-02-21T01:14:13.078Z,82.58
2019-02-21T01:16:44.463Z,81.10
2019-02-21T01:19:15.873Z,81.43
2019-02-21T01:21:47.178Z,81.40
2019-02-21T01:24:18.443Z,81.38
2019-02-21T01:26:50.887Z,81.98
2019-02-21T01:29:22.315Z,81.20
2019-02-21T01:31:53.777Z,81.74
2019-02-21T01:34:25.218Z,82.40
2019-02-21T01:36:56.550Z,83.36
2019-02-21T01:39:27.965Z,83.40
2019-02-21T01:41:59.537Z,83.45
2019-02-21T01:44:30.790Z,83.27
2019-02-21T01:47:02.098Z,83.28
2019-02-21T01:49:33.357Z,83.63
2019-02-21T01:52:04.747Z,83.88
2019-02-21T01:54:36.103Z,84.24
2019-02-21T01:57:07.492Z,84.37
2019-02-21T01:59:38.749Z,84.28
2019-02-21T02:02:10.222Z,84.23
2019-02-21T02:04:41.494Z,84.56
2019-02-21T02:07:13.006Z,84.60
2019-02-21T02:09:44.409Z,84.33
2019-02-21T02:12:17.408Z,84.09
2019-02-21T02:14:48.857Z,84.29
2019-02-21T02:17:21.327Z,84.56
2019-02-21T02:19:52.752Z,84.22
2019-02-21T02:22:25.325Z,84.41
2019-02-21T02:24:56.682Z,84.22
2019-02-21T02:27:28.154Z,83.08
2019-02-21T02:29:59.541Z,82.93
2019-02-21T02:32:31.291Z,82.75
2019-02-21T02:35:02.617Z,83.05
2019-02-21T02:37:34.117Z,84.44
2019-02-21T02:40:06.503Z,83.85
2019-02-21T02:42:37.870Z,83.69
2019-02-21T02:45:09.290Z,84.13
2019-02-21T02:47:40.710Z,84.56
2019-02-21T02:50:12.058Z,84.27
2019-02-21T02:52:43.591Z,84.11
2019-02-21T02:55:15.000Z,84.28
2019-02-21T02:57:47.367Z,84.26
2019-02-21T03:00:18.789Z,83.93
2019-02-21T03:02:50.329Z,84.41
2019-02-21T03:05:21.686Z,84.75
2019-02-21T03:07:53.179Z,84.39
2019-02-21T03:10:24.637Z,84.33
2019-02-21T03:12:56.032Z,84.55
2019-02-21T03:15:27.319Z,84.78
2019-02-21T03:17:58.720Z,85.66
2019-02-21T03:20:30.062Z,85.83
2019-02-21T03:23:02.979Z,86.45
2019-02-21T03:25:34.282Z,86.43
2019-02-21T03:28:05.748Z,86.90
2019-02-21T03:30:37.080Z,87.64
2019-02-21T03:33:08.605Z,88.18
2019-02-21T03:35:40.947Z,88.40
2019-02-21T03:38:12.465Z,88.38
2019-02-21T03:40:43.829Z,88.21
2019-02-21T03:43:15.273Z,88.04
2019-02-21T03:45:46.559Z,87.79
2019-02-21T03:48:17.942Z,87.65
2019-02-21T03:50:49.267Z,87.45
2019-02-21T03:53:20.661Z,87.49
2019-02-21T03:55:52.557Z,87.41
2019-02-21T03:58:24.056Z,87.39
2019-02-21T04:00:55.562Z,87.08
2019-02-21T04:03:27.343Z,86.95
2019-02-21T04:05:58.759Z,86.82
2019-02-21T04:08:30.122Z,86.46
2019-02-21T04:11:01.459Z,86.39
2019-02-21T04:13:32.764Z,86.32
2019-02-21T04:16:04.671Z,86.19
2019-02-21T04:18:35.997Z,86.49
2019-02-21T04:21:07.294Z,86.10
2019-02-21T04:23:38.636Z,86.36
2019-02-21T04:26:10.033Z,86.06
2019-02-21T04:28:41.413Z,86.03
2019-02-21T04:31:12.664Z,85.94
2019-02-21T04:33:47.416Z,85.73
2019-02-21T04:36:18.766Z,85.63
2019-02-21T04:38:54.518Z,85.84
2019-02-21T04:41:25.932Z,85.26
2019-02-21T04:43:58.954Z,84.80
2019-02-21T04:46:30.382Z,84.93
2019-02-21T04:49:03.067Z,85.54
2019-02-21T04:51:36.394Z,85.19
2019-02-21T04:54:09.393Z,85.44
2019-02-21T04:56:40.841Z,86.12
2019-02-21T04:59:12.164Z,86.34
2019-02-21T05:01:43.752Z,86.35
2019-02-21T05:04:15.250Z,85.82
2019-02-21T05:06:46.517Z,86.68
2019-02-21T05:09:17.857Z,85.85
2019-02-21T05:11:49.119Z,86.13
2019-02-21T05:14:20.450Z,86.06
2019-02-21T05:16:51.707Z,86.38
2019-02-21T05:19:23.024Z,85.91
2019-02-21T05:21:54.296Z,86.55
2019-02-21T05:24:25.642Z,85.99
2019-02-21T05:26:58.636Z,86.42
2019-02-21T05:29:29.969Z,86.21
2019-02-21T05:32:08.784Z,86.32
2019-02-21T05:34:56.820Z,86.14
2019-02-21T05:37:35.655Z,86.08
2019-02-21T05:40:15.619Z,86.32
2019-02-21T05:42:48.587Z,86.67
2019-02-21T05:45:37.533Z,86.49
2019-02-21T05:48:10.434Z,86.74
2019-02-21T05:50:46.189Z,87.02
2019-02-21T05:53:36.945Z,87.53
2019-02-21T05:56:27.996Z,87.84
2019-02-21T05:59:03.820Z,88.34
2019-02-21T06:01:37.937Z,88.55
2019-02-21T06:04:14.019Z,89.04
2019-02-21T06:06:46.954Z,88.96
2019-02-21T06:09:19.991Z,88.83
2019-02-21T06:11:55.878Z,88.97
2019-02-21T06:14:37.589Z,89.01
2019-02-21T06:17:10.659Z,88.94
2019-02-21T06:19:44.701Z,89.00
2019-02-21T06:22:20.245Z,88.60
2019-02-21T06:25:02.049Z,88.69
2019-02-21T06:27:40.737Z,88.85
2019-02-21T06:30:13.762Z,88.68
2019-02-21T06:32:45.177Z,88.52
2019-02-21T06:35:16.506Z,88.27
2019-02-21T06:37:47.882Z,88.28
2019-02-21T06:40:19.165Z,88.17
2019-02-21T06:42:50.476Z,88.25
2019-02-21T06:45:21.728Z,88.05
2019-02-21T06:47:53.127Z,88.17
2019-02-21T06:50:27.110Z,88.43
2019-02-21T06:52:57.392Z,88.66
2019-02-21T06:55:28.712Z,89.21
2019-02-21T06:58:00.144Z,89.43
2019-02-21T07:00:31.402Z,89.44
2019-02-21T07:03:02.744Z,89.45
2019-02-21T07:05:34.005Z,89.56
2019-02-21T07:08:05.453Z,89.60
2019-02-21T07:10:36.698Z,89.48
2019-02-21T07:13:08.010Z,89.33
2019-02-21T07:15:41.318Z,89.27
2019-02-21T07:18:12.326Z,89.07
2019-02-21T07:20:43.644Z,89.29
2019-02-21T07:23:15.045Z,89.36
2019-02-21T07:25:50.635Z,89.45
2019-02-21T07:28:21.988Z,89.43
2019-02-21T07:30:53.458Z,89.63
2019-02-21T07:33:28.786Z,89.47
2019-02-21T07:35:57.768Z,89.28
2019-02-21T07:38:29.164Z,89.07
2019-02-21T07:41:00.467Z,89.05
2019-02-21T07:43:32.114Z,88.98
2019-02-21T07:46:03.467Z,89.05
2019-02-21T07:48:36.617Z,89.02
2019-02-21T07:51:08.213Z,88.77
2019-02-21T07:53:39.545Z,88.48
2019-02-21T07:56:10.874Z,88.52
2019-02-21T07:58:42.196Z,88.50
2019-02-21T08:01:13.458Z,88.19
2019-02-21T08:03:48.109Z,87.96
2019-02-21T08:06:19.630Z,87.73
2019-02-21T08:08:50.802Z,87.99
2019-02-21T08:11:22.171Z,88.03
2019-02-21T08:13:54.620Z,87.95
2019-02-21T08:16:25.892Z,87.62
2019-02-21T08:18:57.231Z,87.66
2019-02-21T08:21:28.660Z,87.62
2019-02-21T08:24:00.022Z,87.56
2019-02-21T08:26:31.373Z,87.65
2019-02-21T08:29:02.842Z,87.38
2019-02-21T08:31:34.256Z,87.38
2019-02-21T08:34:19.758Z,87.21
2019-02-21T08:36:51.153Z,86.89
2019-02-21T08:39:22.476Z,87.16
2019-02-21T08:41:55.229Z,87.20
2019-02-21T08:44:28.775Z,86.83
2019-02-21T08:46:59.798Z,86.60
2019-02-21T08:49:31.294Z,86.61
2019-02-21T08:52:02.623Z,86.17
2019-02-21T08:54:33.912Z,85.75
2019-02-21T08:57:05.276Z,85.50
2019-02-21T08:59:36.684Z,85.06
2019-02-21T09:02:08.083Z,85.25
2019-02-21T09:04:42.675Z,85.03
2019-02-21T09:07:14.015Z,84.72
2019-02-21T09:09:45.332Z,84.11
2019-02-21T09:12:16.600Z,83.92
2019-02-21T09:14:47.963Z,84.62
2019-02-21T09:17:19.282Z,83.97
2019-02-21T09:19:50.700Z,83.68
2019-02-21T09:22:22.045Z,83.25
2019-02-21T09:24:53.505Z,83.09
2019-02-21T09:27:24.830Z,82.62
2019-02-21T09:29:56.216Z,82.70
2019-02-21T09:32:27.603Z,82.08
2019-02-21T09:34:58.911Z,82.46
2019-02-21T09:37:30.260Z,81.88
2019-02-21T09:40:01.590Z,81.54
2019-02-21T09:42:33.182Z,81.71
2019-02-21T09:45:09.330Z,81.12
2019-02-21T09:47:40.422Z,81.21
2019-02-21T09:50:12.884Z,80.66
2019-02-21T09:52:44.364Z,80.30
2019-02-21T09:55:18.445Z,80.39
2019-02-21T09:57:49.774Z,80.76
2019-02-21T10:00:24.796Z,80.44
2019-02-21T10:02:56.790Z,79.76
2019-02-21T10:05:28.233Z,79.68
2019-02-21T10:07:59.775Z,79.44
2019-02-21T10:10:31.253Z,78.91
2019-02-21T10:13:02.638Z,78.04
2019-02-21T10:15:33.964Z,76.69
2019-02-21T10:18:05.383Z,75.70
2019-02-21T10:20:36.718Z,75.30
2019-02-21T10:23:08.092Z,74.83
2019-02-21T10:25:41.209Z,74.21
2019-02-21T10:28:12.574Z,74.47
2019-02-21T10:30:44.072Z,75.39
2019-02-21T10:33:15.518Z,75.49
2019-02-21T10:35:47.793Z,75.39
2019-02-21T10:38:19.110Z,75.63
2019-02-21T10:40:50.458Z,75.50
2019-02-21T10:43:21.857Z,75.22
2019-02-21T10:45:53.315Z,75.06
2019-02-21T10:48:25.182Z,75.02
2019-02-21T10:50:56.638Z,75.22
2019-02-21T10:53:28.108Z,74.78
2019-02-21T10:55:59.501Z,74.97
2019-02-21T10:58:30.919Z,74.74
2019-02-21T11:01:02.360Z,75.19
2019-02-21T11:03:34.831Z,75.06
2019-02-21T11:06:06.229Z,75.21
2019-02-21T11:08:37.526Z,74.26
2019-02-21T11:11:10.121Z,73.49
2019-02-21T11:13:41.466Z,74.15
2019-02-21T11:16:12.863Z,72.93
2019-02-21T11:18:44.274Z,71.04
2019-02-21T11:21:15.886Z,70.73
2019-02-21T11:23:47.171Z,70.48
2019-02-21T11:26:18.718Z,69.16
2019-02-21T11:28:50.143Z,68.94
2019-02-21T11:31:21.543Z,70.46
2019-02-21T11:33:53.030Z,70.01
2019-02-21T11:36:24.619Z,69.68
2019-02-21T11:38:55.916Z,69.35
2019-02-21T11:41:27.347Z,68.65
2019-02-21T11:43:58.633Z,68.58
2019-02-21T11:46:30.028Z,68.86
2019-02-21T11:49:01.396Z,71.14
2019-02-21T11:51:32.775Z,71.33
2019-02-21T11:54:04.158Z,71.08
2019-02-21T11:56:35.556Z,70.59
2019-02-21T11:59:06.918Z,68.89
2019-02-21T12:01:39.696Z,69.47
2019-02-21T12:04:11.219Z,68.75
2019-02-21T12:06:42.640Z,69.10
2019-02-21T12:09:14.168Z,68.98
2019-02-21T12:11:45.644Z,68.81
2019-02-21T12:14:17.011Z,68.05
2019-02-21T12:16:48.327Z,66.78
2019-02-21T12:19:19.687Z,66.71
2019-02-21T12:21:58.722Z,67.33
2019-02-21T12:24:24.163Z,67.39
2019-02-21T12:26:55.559Z,66.47
2019-02-21T12:29:26.879Z,67.35
2019-02-21T12:31:58.275Z,66.52
2019-02-21T12:34:29.590Z,64.97
2019-02-21T12:37:01.077Z,64.47
2019-02-21T12:39:32.513Z,64.22
2019-02-21T12:42:04.007Z,62.67
2019-02-21T12:44:36.325Z,62.95
2019-02-21T12:47:07.693Z,62.64
2019-02-21T12:49:39.063Z,61.68
2019-02-21T12:52:10.512Z,61.54
2019-02-21T12:54:41.825Z,61.62
2019-02-21T12:57:13.184Z,60.72
2019-02-21T12:59:44.663Z,59.17
2019-02-21T13:02:16.106Z,60.08
2019-02-21T13:04:47.660Z,61.20
2019-02-21T13:07:19.129Z,60.52
2019-02-21T13:09:50.544Z,61.09
2019-02-21T13:12:21.984Z,61.59
2019-02-21T13:14:53.357Z,59.43
2019-02-21T13:17:24.837Z,60.71
2019-02-21T13:19:56.209Z,61.42
2019-02-21T13:22:27.577Z,59.69
2019-02-21T13:25:00.826Z,57.29
2019-02-21T13:27:33.686Z,57.82
2019-02-21T13:30:08.804Z,57.50
2019-02-21T13:32:40.196Z,57.29
2019-02-21T13:35:12.176Z,57.25
2019-02-21T13:37:43.736Z,55.26
2019-02-21T13:40:21.213Z,56.09
2019-02-21T13:42:52.251Z,56.11
2019-02-21T13:45:23.648Z,56.29
2019-02-21T13:47:55.147Z,56.43
2019-02-21T13:50:26.652Z,56.85
2019-02-21T13:52:57.934Z,57.60
2019-02-21T13:55:29.404Z,57.54
2019-02-21T13:58:00.983Z,59.43
2019-02-21T14:00:32.407Z,58.46
2019-02-21T14:03:09.831Z,56.53
2019-02-21T14:05:43.033Z,56.18
2019-02-21T14:08:15.547Z,56.21
2019-02-21T14:10:46.895Z,55.65
2019-02-21T14:13:18.337Z,55.39
2019-02-21T14:15:49.834Z,55.40
2019-02-21T14:18:24.326Z,55.75
2019-02-21T14:20:54.646Z,56.74
2019-02-21T14:23:27.986Z,57.33
2019-02-21T14:25:59.303Z,58.30
2019-02-21T14:28:30.879Z,58.82
2019-02-21T14:31:03.412Z,58.29
2019-02-21T14:33:35.423Z,58.37
2019-02-21T14:36:15.137Z,58.68
2019-02-21T14:38:40.994Z,58.28
2019-02-21T14:41:12.462Z,57.69
2019-02-21T14:43:43.922Z,57.56
2019-02-21T14:46:16.815Z,55.97
2019-02-21T14:48:48.320Z,56.51
2019-02-21T14:51:19.702Z,57.02
2019-02-21T14:53:51.052Z,57.52
2019-02-21T14:56:22.493Z,58.01
2019-02-21T14:58:54.908Z,58.46
2019-02-21T15:01:26.972Z,58.75
2019-02-21T15:03:58.528Z,58.63
2019-02-21T15:06:32.601Z,57.58
2019-02-21T15:09:06.378Z,57.70
2019-02-21T15:11:38.536Z,58.34
2019-02-21T15:14:10.032Z,59.21
2019-02-21T15:16:41.306Z,59.81
2019-02-21T15:19:12.683Z,59.54
2019-02-21T15:21:44.022Z,58.48
2019-02-21T15:24:15.437Z,58.79
2019-02-21T15:26:46.982Z,58.57
2019-02-21T15:29:18.441Z,58.24
2019-02-21T15:31:50.108Z,57.90
2019-02-21T15:34:24.042Z,58.13
2019-02-21T15:36:55.462Z,58.25
2019-02-21T15:39:26.792Z,58.53
2019-02-21T15:41:58.104Z,58.47
2019-02-21T15:44:29.386Z,58.50
2019-02-21T15:47:01.030Z,58.50
2019-02-21T15:49:32.665Z,58.21
2019-02-21T15:52:04.273Z,58.29
2019-02-21T15:54:35.754Z,57.63
2019-02-21T15:57:07.592Z,57.89
2019-02-21T15:59:39.086Z,58.31
2019-02-21T16:02:10.465Z,59.38
2019-02-21T16:04:43.029Z,58.26
2019-02-21T16:07:14.804Z,57.81
2019-02-21T16:09:46.279Z,58.10
2019-02-21T16:12:18.301Z,59.29
2019-02-21T16:14:49.897Z,59.28
2019-02-21T16:17:21.326Z,58.73
2019-02-21T16:19:52.864Z,58.75
2019-02-21T16:22:24.246Z,59.37
2019-02-21T16:24:55.589Z,59.55
2019-02-21T16:27:27.183Z,58.70
2019-02-21T16:29:58.631Z,58.43
2019-02-21T16:32:29.925Z,60.48
2019-02-21T16:35:01.403Z,61.42
2019-02-21T16:37:32.901Z,61.67
2019-02-21T16:40:05.517Z,59.67
2019-02-21T16:42:36.977Z,60.68
2019-02-21T16:45:12.178Z,61.37
2019-02-21T16:47:43.752Z,61.46
2019-02-21T16:50:16.826Z,61.77
2019-02-21T16:52:48.104Z,62.31
2019-02-21T16:55:23.995Z,62.79
2019-02-21T16:57:55.520Z,62.41
2019-02-21T17:00:38.942Z,61.23
2019-02-21T17:03:04.009Z,62.09
2019-02-21T17:05:35.677Z,62.83
2019-02-21T17:08:08.160Z,63.35
2019-02-21T17:10:39.661Z,63.46
2019-02-21T17:13:11.110Z,62.95
2019-02-21T17:15:42.466Z,63.32
2019-02-21T17:18:14.069Z,63.21
2019-02-21T17:20:45.634Z,63.25
2019-02-21T17:23:22.949Z,63.80
2019-02-21T17:25:50.451Z,63.97
2019-02-21T17:28:23.982Z,64.28
2019-02-21T17:30:56.284Z,64.39
2019-02-21T17:33:27.717Z,65.06
2019-02-21T17:36:00.811Z,64.87
2019-02-21T17:38:32.374Z,64.94
2019-02-21T17:41:03.815Z,65.28
2019-02-21T17:43:38.911Z,65.68
2019-02-21T17:46:11.901Z,65.93
2019-02-21T17:48:44.565Z,66.23
2019-02-21T17:51:16.100Z,66.24
2019-02-21T17:53:47.606Z,66.09
2019-02-21T17:56:19.039Z,66.11
2019-02-21T17:58:50.490Z,66.34
2019-02-21T18:01:21.957Z,66.37
2019-02-21T18:03:53.406Z,66.64
2019-02-21T18:06:24.984Z,66.06
2019-02-21T18:08:57.857Z,65.87
2019-02-21T18:11:34.270Z,65.06
2019-02-21T18:14:05.463Z,65.40
2019-02-21T18:16:37.243Z,63.95
2019-02-21T18:19:08.776Z,63.57
2019-02-21T18:21:40.126Z,63.74
2019-02-21T18:24:11.557Z,63.60
2019-02-21T18:26:43.088Z,63.73
2019-02-21T18:29:14.607Z,63.97
2019-02-21T18:31:46.076Z,63.99
2019-02-21T18:34:17.479Z,64.12
2019-02-21T18:36:48.885Z,63.94
2019-02-21T18:39:20.642Z,64.52
2019-02-21T18:41:52.242Z,64.46
2019-02-21T18:44:23.697Z,64.54
2019-02-21T18:46:55.252Z,64.80
2019-02-21T18:49:27.187Z,64.64
2019-02-21T18:51:58.707Z,64.87
2019-02-21T18:54:30.227Z,65.12
2019-02-21T18:57:07.566Z,65.61
2019-02-21T18:59:39.256Z,65.88
2019-02-21T19:02:11.015Z,66.09
2019-02-21T19:04:42.533Z,66.24
2019-02-21T19:07:15.798Z,66.60
2019-02-21T19:09:48.937Z,66.87
2019-02-21T19:12:20.383Z,66.98
2019-02-21T19:14:51.862Z,66.92
2019-02-21T19:17:23.290Z,66.67
2019-02-21T19:19:55.737Z,66.73
2019-02-21T19:22:27.340Z,66.94
2019-02-21T19:24:58.701Z,67.18
2019-02-21T19:27:37.030Z,67.08
2019-02-21T19:30:03.409Z,67.77
2019-02-21T19:32:38.397Z,68.15
2019-02-21T19:35:12.181Z,68.54
2019-02-21T19:37:43.606Z,68.77
2019-02-21T19:40:15.975Z,68.72
2019-02-21T19:42:47.527Z,68.91
2019-02-21T19:45:36.775Z,69.05
2019-02-21T19:48:26.524Z,69.10
2019-02-21T19:51:08.552Z,69.48
2019-02-21T19:53:40.202Z,69.92
2019-02-21T19:56:11.791Z,70.55
2019-02-21T19:58:46.429Z,70.18
2019-02-21T20:01:18.090Z,69.83
2019-02-21T20:03:52.308Z,69.58
2019-02-21T20:06:23.836Z,69.57
2019-02-21T20:08:55.435Z,70.09
2019-02-21T20:11:26.958Z,70.33
2019-02-21T20:13:58.420Z,70.55
2019-02-21T20:16:29.901Z,71.09
2019-02-21T20:19:01.362Z,71.53
2019-02-21T20:21:32.841Z,71.94
2019-02-21T20:24:04.314Z,71.66
2019-02-21T20:26:35.662Z,71.78
2019-02-21T20:29:07.044Z,71.76
2019-02-21T20:31:39.230Z,71.68
2019-02-21T20:34:12.846Z,71.90
2019-02-21T20:36:50.967Z,72.06
2019-02-21T20:39:18.866Z,72.20
2019-02-21T20:41:53.231Z,71.60
2019-02-21T20:44:26.741Z,71.70
2019-02-21T20:46:58.116Z,71.70
2019-02-21T20:49:29.512Z,71.53
2019-02-21T20:52:01.163Z,71.39
2019-02-21T20:54:32.729Z,71.23
2019-02-21T20:57:04.235Z,71.12
2019-02-21T20:59:35.809Z,71.11
2019-02-21T21:02:07.532Z,71.07
2019-02-21T21:04:39.447Z,70.97
2019-02-21T21:07:11.122Z,70.86
2019-02-21T21:09:42.877Z,70.80
2019-02-21T21:12:14.390Z,70.45
2019-02-21T21:14:45.948Z,70.14
2019-02-21T21:17:17.447Z,69.97
2019-02-21T21:19:50.420Z,70.00
2019-02-21T21:22:21.769Z,69.92
2019-02-21T21:24:53.145Z,69.70
2019-02-21T21:27:24.585Z,69.76
2019-02-21T21:29:56.082Z,69.43
2019-02-21T21:32:27.503Z,69.24
2019-02-21T21:34:58.835Z,69.19
2019-02-21T21:37:30.379Z,68.75
2019-02-21T21:40:07.047Z,68.91
2019-02-21T21:42:38.725Z,69.15
2019-02-21T21:45:18.412Z,69.51
2019-02-21T21:47:49.896Z,69.81
2019-02-21T21:50:23.376Z,70.28
2019-02-21T21:52:54.900Z,70.50
2019-02-21T21:55:27.143Z,70.76
2019-02-21T21:57:58.481Z,70.71
2019-02-21T22:00:29.899Z,70.60
2019-02-21T22:03:01.243Z,71.21
2019-02-21T22:05:32.797Z,71.30
2019-02-21T22:08:04.643Z,71.67
2019-02-21T22:10:36.000Z,71.58
2019-02-21T22:13:07.335Z,71.15
2019-02-21T22:15:38.891Z,70.87
2019-02-21T22:18:10.305Z,70.93
2019-02-21T22:20:42.698Z,70.78
2019-02-21T22:23:14.057Z,70.99
2019-02-21T22:25:45.531Z,71.02
2019-02-21T22:28:16.802Z,71.51
2019-02-21T22:30:48.112Z,71.66
2019-02-21T22:33:19.525Z,72.35
2019-02-21T22:35:52.367Z,72.41
2019-02-21T22:38:23.727Z,72.50
2019-02-21T22:40:55.167Z,72.37
2019-02-21T22:43:26.419Z,71.96
2019-02-21T22:45:57.965Z,71.11
2019-02-21T22:48:29.257Z,71.52
2019-02-21T22:51:00.641Z,71.50
2019-02-21T22:53:31.924Z,71.33
2019-02-21T22:56:04.419Z,71.28
2019-02-21T22:58:44.709Z,70.71
2019-02-21T23:01:25.353Z,70.85
2019-02-21T23:04:05.780Z,71.12
2019-02-21T23:06:56.642Z,70.90
2019-02-21T23:09:28.392Z,71.32
2019-02-21T23:12:00.011Z,71.48
2019-02-21T23:14:32.604Z,71.18
2019-02-21T23:17:04.295Z,70.96
2019-02-21T23:19:35.786Z,71.01
2019-02-21T23:22:07.244Z,70.58
2019-02-21T23:24:38.618Z,70.47
2019-02-21T23:27:10.194Z,70.19
2019-02-21T23:29:41.477Z,69.87
2019-02-21T23:32:13.036Z,69.82
2019-02-21T23:34:44.812Z,69.63
2019-02-21T23:37:16.303Z,69.54
2019-02-21T23:39:47.666Z,69.46
2019-02-21T23:42:19.183Z,69.55
2019-02-21T23:44:50.693Z,69.57
2019-02-21T23:47:22.098Z,69.36
2019-02-21T23:49:53.361Z,69.11
2019-02-21T23:52:24.773Z,68.73
2019-02-21T23:54:57.947Z,68.78
2019-02-21T23:57:29.983Z,68.71
